createdAt,value
2023-02-18T00:00:20.212Z,102323.84
2023-02-18T00:02:47.283Z,102328.50
2023-02-18T00:05:14.631Z,102332.34
2023-02-18T00:07:41.660Z,102324.63
2023-02-18T00:10:12.390Z,102331.69
2023-02-18T00:12:39.485Z,102331.22
2023-02-18T00:15:06.882Z,102328.97
2023-02-18T00:17:34.558Z,102330.19
2023-02-18T00:20:01.098Z,102331.31
2023-02-18T00:22:27.645Z,102321.13
2023-02-18T00:24:54.137Z,102325.00
2023-02-18T00:27:20.636Z,102327.34
2023-02-18T00:29:47.164Z,102321.47
2023-02-18T00:32:13.771Z,102319.09
2023-02-18T00:34:41.228Z,102321.38
2023-02-18T00:37:08.247Z,102306.88
2023-02-18T00:39:34.862Z,102316.94
2023-02-18T00:42:01.383Z,102309.59
2023-02-18T00:44:27.913Z,102313.41
2023-02-18T00:46:54.446Z,102304.16
2023-02-18T00:49:20.977Z,102304.47
2023-02-18T00:51:47.517Z,102307.19
2023-02-18T00:54:15.000Z,102305.25
2023-02-18T00:56:41.582Z,102305.16
2023-02-18T00:59:08.109Z,102295.88
2023-02-18T01:01:35.332Z,102303.38
2023-02-18T01:04:01.911Z,102288.19
2023-02-18T01:06:28.534Z,102292.38
2023-02-18T01:08:55.048Z,102291.13
2023-02-18T01:11:21.582Z,102298.13
2023-02-18T01:13:48.286Z,102292.25
2023-02-18T01:16:14.862Z,102282.06
2023-02-18T01:18:42.430Z,102300.16
2023-02-18T01:21:09.685Z,102291.91
2023-02-18T01:23:40.396Z,102289.50
2023-02-18T01:26:08.313Z,102294.03
2023-02-18T01:28:35.362Z,102286.56
2023-02-18T01:31:09.493Z,102290.75
2023-02-18T01:33:37.062Z,102287.44
2023-02-18T01:36:04.170Z,102288.91
2023-02-18T01:38:30.668Z,102277.59
2023-02-18T01:40:57.186Z,102280.28
2023-02-18T01:43:24.133Z,102273.94
2023-02-18T01:46:00.138Z,102275.56
2023-02-18T01:48:33.478Z,102262.41
2023-02-18T01:51:08.316Z,102266.59
2023-02-18T01:53:46.127Z,102265.03
2023-02-18T01:56:20.121Z,102252.22
2023-02-18T01:58:47.850Z,102249.53
2023-02-18T02:01:15.445Z,102253.03
2023-02-18T02:03:41.976Z,102255.28
2023-02-18T02:06:17.219Z,102260.28
2023-02-18T02:08:45.382Z,102253.69
2023-02-18T02:11:23.088Z,102241.38
2023-02-18T02:13:59.994Z,102234.38
2023-02-18T02:16:38.245Z,102232.13
2023-02-18T02:19:30.921Z,102232.44
2023-02-18T02:22:09.778Z,102224.31
2023-02-18T02:24:46.463Z,102209.81
2023-02-18T02:27:21.399Z,102199.75
2023-02-18T02:29:52.004Z,102191.28
2023-02-18T02:32:41.906Z,102184.38
2023-02-18T02:35:19.073Z,102171.72
2023-02-18T02:37:51.009Z,102170.94
2023-02-18T02:40:19.619Z,102153.06
2023-02-18T02:43:17.131Z,102148.53
2023-02-18T02:45:54.832Z,102138.94
2023-02-18T02:48:43.491Z,102134.28
2023-02-18T02:51:15.085Z,102136.22
2023-02-18T02:53:43.137Z,102122.31
2023-02-18T02:56:16.993Z,102122.75
2023-02-18T02:58:47.248Z,102110.31
2023-02-18T03:01:25.139Z,102113.72
2023-02-18T03:04:19.589Z,102100.13
2023-02-18T03:06:45.984Z,102097.75
2023-02-18T03:09:32.784Z,102102.06
2023-02-18T03:12:16.821Z,102095.50
2023-02-18T03:14:54.110Z,102086.56
2023-02-18T03:17:31.452Z,102090.53
2023-02-18T03:20:10.222Z,102091.75
2023-02-18T03:22:42.138Z,102086.00
2023-02-18T03:25:10.393Z,102081.03
2023-02-18T03:27:43.918Z,102075.59
2023-02-18T03:30:16.203Z,102072.09
2023-02-18T03:32:46.142Z,102063.59
2023-02-18T03:35:15.939Z,102052.72
2023-02-18T03:37:51.216Z,102059.06
2023-02-18T03:40:19.097Z,102040.84
2023-02-18T03:42:46.080Z,102033.06
2023-02-18T03:45:12.760Z,102036.22
2023-02-18T03:47:39.350Z,102023.78
2023-02-18T03:50:07.512Z,102016.41
2023-02-18T03:52:36.532Z,102014.97
2023-02-18T03:55:05.567Z,102017.69
2023-02-18T03:57:32.630Z,102016.53
2023-02-18T04:00:00.271Z,102005.34
2023-02-18T04:02:27.232Z,102007.59
2023-02-18T04:04:53.767Z,101997.19
2023-02-18T04:07:20.390Z,101992.53
2023-02-18T04:09:46.894Z,101998.41
2023-02-18T04:12:13.434Z,101994.91
2023-02-18T04:14:39.883Z,101995.38
2023-02-18T04:17:07.452Z,101983.38
2023-02-18T04:19:34.248Z,101976.00
2023-02-18T04:22:01.392Z,101974.88
2023-02-18T04:24:27.999Z,101966.38
2023-02-18T04:26:55.428Z,101961.38
2023-02-18T04:29:21.977Z,101961.38
2023-02-18T04:31:49.538Z,101963.31
2023-02-18T04:34:16.204Z,101957.56
2023-02-18T04:36:42.704Z,101970.34
2023-02-18T04:39:09.298Z,101959.13
2023-02-18T04:41:35.793Z,101962.28
2023-02-18T04:44:02.318Z,101958.44
2023-02-18T04:46:28.938Z,101957.63
2023-02-18T04:48:55.497Z,101936.28
2023-02-18T04:51:23.060Z,101928.13
2023-02-18T04:53:49.630Z,101928.13
2023-02-18T04:56:16.125Z,101933.56
2023-02-18T04:58:42.679Z,101926.19
2023-02-18T05:01:09.364Z,101915.34
2023-02-18T05:03:35.955Z,101914.53
2023-02-18T05:06:02.555Z,101923.03
2023-02-18T05:08:29.176Z,101928.47
2023-02-18T05:10:55.716Z,101926.91
2023-02-18T05:13:22.922Z,101927.69
2023-02-18T05:15:49.987Z,101928.47
2023-02-18T05:18:16.560Z,101917.59
2023-02-18T05:20:44.048Z,101926.09
2023-02-18T05:23:10.560Z,101935.38
2023-02-18T05:25:37.037Z,101917.16
2023-02-18T05:28:03.710Z,101919.88
2023-02-18T05:30:30.247Z,101910.94
2023-02-18T05:32:56.800Z,101908.22
2023-02-18T05:35:23.328Z,101901.19
2023-02-18T05:37:51.207Z,101902.78
2023-02-18T05:40:17.991Z,101899.28
2023-02-18T05:42:44.468Z,101901.66
2023-02-18T05:45:11.054Z,101886.94
2023-02-18T05:47:37.611Z,101882.63
2023-02-18T05:50:05.406Z,101875.63
2023-02-18T05:52:31.870Z,101882.63
2023-02-18T05:54:58.420Z,101886.94
2023-02-18T05:57:25.772Z,101887.38
2023-02-18T05:59:52.307Z,101876.16
2023-02-18T06:02:18.856Z,101872.31
2023-02-18T06:04:45.416Z,101874.69
2023-02-18T06:07:13.219Z,101885.56
2023-02-18T06:09:39.765Z,101884.41
2023-02-18T06:12:06.516Z,101884.41
2023-02-18T06:14:33.231Z,101883.25
2023-02-18T06:17:00.708Z,101891.41
2023-02-18T06:19:27.264Z,101887.56
2023-02-18T06:21:54.180Z,101879.44
2023-02-18T06:24:20.751Z,101878.28
2023-02-18T06:26:47.267Z,101881.00
2023-02-18T06:29:13.742Z,101886.09
2023-02-18T06:31:40.282Z,101879.88
2023-02-18T06:34:07.756Z,101879.53
2023-02-18T06:36:34.360Z,101889.25
2023-02-18T06:39:03.904Z,101883.81
2023-02-18T06:41:30.411Z,101898.97
2023-02-18T06:43:57.000Z,101875.66
2023-02-18T06:46:23.871Z,101886.88
2023-02-18T06:48:50.502Z,101889.25
2023-02-18T06:51:17.293Z,101896.59
2023-02-18T06:53:44.246Z,101893.91
2023-02-18T06:56:11.510Z,101886.53
2023-02-18T06:58:39.610Z,101891.50
2023-02-18T07:01:06.232Z,101892.66
2023-02-18T07:03:33.907Z,101881.00
2023-02-18T07:06:00.461Z,101877.84
2023-02-18T07:08:27.558Z,101872.75
2023-02-18T07:10:54.085Z,101871.16
2023-02-18T07:13:20.543Z,101881.25
2023-02-18T07:15:47.015Z,101882.84
2023-02-18T07:18:13.535Z,101880.91
2023-02-18T07:20:40.104Z,101880.53
2023-02-18T07:23:06.569Z,101879.75
2023-02-18T07:25:33.070Z,101877.03
2023-02-18T07:27:59.606Z,101892.56
2023-02-18T07:30:26.198Z,101877.03
2023-02-18T07:32:52.719Z,101873.09
2023-02-18T07:35:19.457Z,101871.97
2023-02-18T07:37:47.909Z,101873.44
2023-02-18T07:40:17.153Z,101872.31
2023-02-18T07:42:43.702Z,101855.25
2023-02-18T07:45:11.369Z,101863.84
2023-02-18T07:47:38.062Z,101859.19
2023-02-18T07:50:06.543Z,101859.63
2023-02-18T07:52:33.102Z,101865.50
2023-02-18T07:54:59.622Z,101875.56
2023-02-18T07:57:26.241Z,101865.50
2023-02-18T07:59:52.777Z,101865.50
2023-02-18T08:02:23.476Z,101878.28
2023-02-18T08:04:50.407Z,101871.63
2023-02-18T08:07:18.479Z,101881.69
2023-02-18T08:09:46.032Z,101876.25
2023-02-18T08:12:12.610Z,101879.31
2023-02-18T08:14:39.077Z,101880.91
2023-02-18T08:17:05.582Z,101882.03
2023-02-18T08:19:32.195Z,101889.41
2023-02-18T08:22:02.771Z,101885.91
2023-02-18T08:24:29.776Z,101890.88
2023-02-18T08:27:00.883Z,101888.16
2023-02-18T08:29:28.597Z,101895.88
2023-02-18T08:31:57.284Z,101895.88
2023-02-18T08:34:23.941Z,101907.88
2023-02-18T08:36:50.490Z,101908.56
2023-02-18T08:39:17.048Z,101909.72
2023-02-18T08:41:44.301Z,101913.53
2023-02-18T08:44:10.881Z,101915.81
2023-02-18T08:46:37.517Z,101908.81
2023-02-18T08:49:05.536Z,101897.97
2023-02-18T08:51:32.341Z,101905.66
2023-02-18T08:53:58.883Z,101900.94
2023-02-18T08:56:25.755Z,101896.63
2023-02-18T08:58:52.348Z,101891.88
2023-02-18T09:01:18.970Z,101904.22
2023-02-18T09:03:45.420Z,101900.72
2023-02-18T09:06:11.941Z,101908.84
2023-02-18T09:08:38.576Z,101911.13
2023-02-18T09:11:05.174Z,101921.19
2023-02-18T09:13:33.455Z,101907.63
2023-02-18T09:16:04.325Z,101913.06
2023-02-18T09:18:32.264Z,101915.44
2023-02-18T09:21:00.518Z,101898.44
2023-02-18T09:23:29.674Z,101911.22
2023-02-18T09:25:56.766Z,101911.22
2023-02-18T09:28:23.628Z,101918.59
2023-02-18T09:30:50.691Z,101909.66
2023-02-18T09:33:18.670Z,101917.81
2023-02-18T09:35:46.572Z,101912.81
2023-02-18T09:38:17.365Z,101920.59
2023-02-18T09:40:49.613Z,101929.19
2023-02-18T09:43:27.245Z,101929.66
2023-02-18T09:45:55.064Z,101931.25
2023-02-18T09:48:28.943Z,101928.16
2023-02-18T09:50:55.702Z,101935.97
2023-02-18T09:53:24.472Z,101939.59
2023-02-18T09:55:53.820Z,101939.13
2023-02-18T09:58:26.041Z,101938.75
2023-02-18T10:01:00.099Z,101939.22
2023-02-18T10:03:27.687Z,101926.09
2023-02-18T10:06:04.070Z,101930.84
2023-02-18T10:08:36.693Z,101950.28
2023-02-18T10:11:03.593Z,101945.72
2023-02-18T10:13:33.111Z,101951.59
2023-02-18T10:16:01.690Z,101954.88
2023-02-18T10:18:32.639Z,101952.69
2023-02-18T10:21:08.356Z,101947.81
2023-02-18T10:23:39.074Z,101946.31
2023-02-18T10:26:10.852Z,101950.25
2023-02-18T10:28:38.186Z,101957.75
2023-02-18T10:31:11.397Z,101961.31
2023-02-18T10:33:48.950Z,101963.69
2023-02-18T10:36:17.214Z,101959.16
2023-02-18T10:39:04.302Z,101961.59
2023-02-18T10:42:02.194Z,101965.19
2023-02-18T10:44:35.077Z,101978.19
2023-02-18T10:47:19.644Z,101972.19
2023-02-18T10:49:57.785Z,101974.63
2023-02-18T10:52:27.616Z,101982.09
2023-02-18T10:55:04.672Z,101970.25
2023-02-18T10:57:32.298Z,101974.22
2023-02-18T11:00:16.201Z,101964.56
2023-02-18T11:02:43.635Z,101962.72
2023-02-18T11:05:25.494Z,101974.81
2023-02-18T11:07:56.649Z,101973.69
2023-02-18T11:10:29.839Z,101969.47
2023-02-18T11:13:03.653Z,101973.59
2023-02-18T11:15:30.427Z,101969.81
2023-02-18T11:18:14.189Z,101971.09
2023-02-18T11:20:40.894Z,101963.47
2023-02-18T11:23:07.366Z,101972.41
2023-02-18T11:25:36.627Z,101976.28
2023-02-18T11:28:21.218Z,101982.06
2023-02-18T11:30:54.157Z,101964.88
2023-02-18T11:33:29.443Z,101974.63
2023-02-18T11:35:59.067Z,101970.31
2023-02-18T11:38:34.227Z,101979.25
2023-02-18T11:41:11.894Z,101976.81
2023-02-18T11:43:43.221Z,101984.09
2023-02-18T11:46:16.641Z,101984.47
2023-02-18T11:48:43.493Z,101970.88
2023-02-18T11:51:19.800Z,101977.53
2023-02-18T11:54:06.335Z,101975.94
2023-02-18T11:56:36.974Z,101982.59
2023-02-18T11:59:04.772Z,101970.25
2023-02-18T12:01:34.309Z,101979.97
2023-02-18T12:04:08.716Z,101973.03
2023-02-18T12:06:41.821Z,101967.69
2023-02-18T12:09:29.867Z,101968.47
2023-02-18T12:12:00.754Z,101966.91
2023-02-18T12:14:27.698Z,101953.66
2023-02-18T12:17:28.691Z,101966.47
2023-02-18T12:20:15.094Z,101971.09
2023-02-18T12:22:43.959Z,101967.25
2023-02-18T12:25:25.486Z,101966.91
2023-02-18T12:28:10.719Z,101956.47
2023-02-18T12:30:59.167Z,101957.69
2023-02-18T12:33:46.845Z,101962.06
2023-02-18T12:36:27.483Z,101963.28
2023-02-18T12:39:16.836Z,101959.50
2023-02-18T12:41:47.386Z,101958.00
2023-02-18T12:44:21.877Z,101971.25
2023-02-18T12:47:13.592Z,101966.31
2023-02-18T12:50:02.582Z,101972.19
2023-02-18T12:52:50.156Z,101977.38
2023-02-18T12:55:25.693Z,101978.66
2023-02-18T12:58:17.389Z,101974.06
2023-02-18T13:00:59.282Z,101984.69
2023-02-18T13:03:47.432Z,101973.09
2023-02-18T13:06:32.556Z,101971.94
2023-02-18T13:09:26.717Z,101971.16
2023-02-18T13:12:06.832Z,101972.31
2023-02-18T13:14:46.496Z,101979.31
2023-02-18T13:17:17.282Z,101977.31
2023-02-18T13:19:54.988Z,101979.63
2023-02-18T13:22:24.584Z,101969.06
2023-02-18T13:24:55.654Z,101985.41
2023-02-18T13:27:37.066Z,101991.63
2023-02-18T13:30:22.308Z,101983.13
2023-02-18T13:33:01.925Z,101980.06
2023-02-18T13:35:57.404Z,101978.53
2023-02-18T13:38:42.571Z,101972.38
2023-02-18T13:41:09.987Z,101976.69
2023-02-18T13:43:48.024Z,101968.56
2023-02-18T13:46:30.001Z,101977.91
2023-02-18T13:49:00.713Z,101976.31
2023-02-18T13:51:29.394Z,101982.91
2023-02-18T13:54:04.725Z,101984.13
2023-02-18T13:56:36.545Z,101994.69
2023-02-18T13:59:11.885Z,101993.09
2023-02-18T14:01:42.603Z,102006.00
2023-02-18T14:04:36.468Z,102001.41
2023-02-18T14:07:25.118Z,102000.69
2023-02-18T14:09:54.300Z,102003.47
2023-02-18T14:12:37.752Z,102002.44
2023-02-18T14:15:27.523Z,102009.88
2023-02-18T14:18:16.269Z,102017.34
2023-02-18T14:20:48.060Z,102012.66
2023-02-18T14:23:18.867Z,102006.88
2023-02-18T14:25:53.739Z,101997.56
2023-02-18T14:28:33.501Z,102003.78
2023-02-18T14:31:04.338Z,102010.47
2023-02-18T14:33:34.495Z,102007.81
2023-02-18T14:36:16.234Z,102009.03
2023-02-18T14:38:55.513Z,102006.75
2023-02-18T14:41:37.408Z,102011.41
2023-02-18T14:44:24.460Z,102006.31
2023-02-18T14:47:01.519Z,102009.03
2023-02-18T14:49:38.051Z,102009.38
2023-02-18T14:52:07.437Z,102001.56
2023-02-18T14:54:34.778Z,102000.78
2023-02-18T14:57:07.595Z,101997.63
2023-02-18T14:59:40.195Z,102014.34
2023-02-18T15:02:23.089Z,102016.25
2023-02-18T15:04:50.662Z,102008.47
2023-02-18T15:07:20.827Z,102010.38
2023-02-18T15:09:50.603Z,102015.03
2023-02-18T15:12:23.388Z,102008.03
2023-02-18T15:14:53.813Z,102010.31
2023-02-18T15:17:25.589Z,102008.72
2023-02-18T15:19:57.333Z,102017.28
2023-02-18T15:22:26.872Z,102013.75
2023-02-18T15:24:55.829Z,102015.69
2023-02-18T15:27:30.077Z,102009.09
2023-02-18T15:29:59.270Z,102005.56
2023-02-18T15:32:28.232Z,102007.94
2023-02-18T15:35:00.873Z,102009.09
2023-02-18T15:37:28.199Z,102013.38
2023-02-18T15:39:54.883Z,102010.22
2023-02-18T15:42:23.484Z,102010.63
2023-02-18T15:44:55.267Z,102009.81
2023-02-18T15:47:22.936Z,102003.56
2023-02-18T15:49:54.145Z,102005.50
2023-02-18T15:52:27.959Z,102002.00
2023-02-18T15:54:56.662Z,102024.16
2023-02-18T15:57:29.269Z,102012.47
2023-02-18T16:00:04.394Z,102007.38
2023-02-18T16:02:33.456Z,102006.94
2023-02-18T16:05:04.987Z,102011.16
2023-02-18T16:07:48.885Z,102006.78
2023-02-18T16:10:20.468Z,102008.66
2023-02-18T16:12:52.892Z,102005.84
2023-02-18T16:15:26.924Z,102007.28
2023-02-18T16:17:53.477Z,102009.91
2023-02-18T16:20:32.795Z,102013.34
2023-02-18T16:23:03.414Z,102015.66
2023-02-18T16:25:49.547Z,102018.72
2023-02-18T16:28:27.778Z,102022.16
2023-02-18T16:30:54.335Z,102014.78
2023-02-18T16:33:20.866Z,102010.03
2023-02-18T16:35:50.357Z,102016.97
2023-02-18T16:38:21.300Z,102006.00
2023-02-18T16:40:48.375Z,102016.13
2023-02-18T16:43:21.457Z,102012.59
2023-02-18T16:45:53.941Z,102013.66
2023-02-18T16:48:28.143Z,102020.25
2023-02-18T16:50:54.925Z,102017.53
2023-02-18T16:53:21.693Z,102017.09
2023-02-18T16:55:50.924Z,102024.47
2023-02-18T16:58:18.857Z,102019.38
2023-02-18T17:00:46.593Z,102013.94
2023-02-18T17:03:13.734Z,102012.72
2023-02-18T17:05:41.064Z,102017.38
2023-02-18T17:08:17.187Z,102015.78
2023-02-18T17:10:43.970Z,102020.78
2023-02-18T17:13:16.113Z,102014.09
2023-02-18T17:15:43.675Z,102017.19
2023-02-18T17:18:10.571Z,102028.44
2023-02-18T17:20:38.567Z,102022.19
2023-02-18T17:23:06.538Z,102029.13
2023-02-18T17:25:38.371Z,102026.34
2023-02-18T17:28:05.653Z,102026.66
2023-02-18T17:30:37.883Z,102027.38
2023-02-18T17:33:05.962Z,102019.22
2023-02-18T17:35:32.991Z,102018.41
2023-02-18T17:37:59.580Z,102016.06
2023-02-18T17:40:28.386Z,102017.19
2023-02-18T17:42:56.266Z,102030.00
2023-02-18T17:45:29.363Z,102026.06
2023-02-18T17:47:57.289Z,102032.63
2023-02-18T17:50:24.778Z,102029.91
2023-02-18T17:52:51.467Z,102025.97
2023-02-18T17:55:23.227Z,102034.50
2023-02-18T17:57:51.193Z,102033.69
2023-02-18T18:00:23.765Z,102023.84
2023-02-18T18:02:50.379Z,102029.28
2023-02-18T18:05:22.816Z,102027.72
2023-02-18T18:07:50.479Z,102022.63
2023-02-18T18:10:18.760Z,102031.94
2023-02-18T18:12:45.756Z,102032.72
2023-02-18T18:15:23.684Z,102036.56
2023-02-18T18:17:50.438Z,102037.28
2023-02-18T18:20:17.678Z,102041.50
2023-02-18T18:22:44.883Z,102043.00
2023-02-18T18:25:20.561Z,102043.25
2023-02-18T18:27:47.729Z,102044.72
2023-02-18T18:30:14.456Z,102040.31
2023-02-18T18:32:41.266Z,102040.69
2023-02-18T18:35:19.851Z,102034.81
2023-02-18T18:37:46.800Z,102035.03
2023-02-18T18:40:13.661Z,102038.13
2023-02-18T18:42:40.270Z,102043.91
2023-02-18T18:45:07.684Z,102041.06
2023-02-18T18:47:34.177Z,102036.44
2023-02-18T18:50:00.723Z,102037.53
2023-02-18T18:52:27.426Z,102032.13
2023-02-18T18:54:54.008Z,102031.00
2023-02-18T18:57:21.657Z,102022.84
2023-02-18T18:59:48.238Z,102015.81
2023-02-18T19:02:16.610Z,102012.44
2023-02-18T19:04:43.200Z,102010.38
2023-02-18T19:07:09.666Z,102024.41
2023-02-18T19:09:36.197Z,102018.84
2023-02-18T19:12:02.852Z,102032.91
2023-02-18T19:14:29.389Z,102030.53
2023-02-18T19:16:56.208Z,102016.94
2023-02-18T19:19:25.662Z,102013.41
2023-02-18T19:21:53.456Z,102012.63
2023-02-18T19:24:20.020Z,102010.38
2023-02-18T19:26:46.530Z,102014.22
2023-02-18T19:29:13.028Z,102004.47
2023-02-18T19:31:39.605Z,102008.78
2023-02-18T19:34:06.336Z,102015.47
2023-02-18T19:36:33.823Z,102009.25
2023-02-18T19:39:00.356Z,102003.69
2023-02-18T19:41:28.750Z,101999.41
2023-02-18T19:43:55.321Z,101996.59
2023-02-18T19:46:21.850Z,102000.09
2023-02-18T19:48:52.318Z,102000.81
2023-02-18T19:51:20.603Z,102000.81
2023-02-18T19:53:47.539Z,101989.22
2023-02-18T19:56:14.280Z,101988.09
2023-02-18T19:58:41.089Z,101985.72
2023-02-18T20:01:12.371Z,101984.16
2023-02-18T20:03:39.875Z,101973.97
2023-02-18T20:06:06.546Z,101976.69
2023-02-18T20:08:36.877Z,101975.91
2023-02-18T20:11:05.589Z,101969.31
2023-02-18T20:13:32.218Z,101967.75
2023-02-18T20:15:59.661Z,101959.84
2023-02-18T20:18:26.235Z,101954.75
2023-02-18T20:20:52.802Z,101953.59
2023-02-18T20:23:19.421Z,101948.16
2023-02-18T20:25:47.612Z,101952.81
2023-02-18T20:28:14.820Z,101945.38
2023-02-18T20:30:41.491Z,101947.31
2023-02-18T20:33:08.099Z,101950.03
2023-02-18T20:35:34.615Z,101954.66
2023-02-18T20:38:01.340Z,101954.22
2023-02-18T20:40:28.335Z,101948.78
2023-02-18T20:42:55.034Z,101941.78
2023-02-18T20:45:23.855Z,101939.41
2023-02-18T20:47:50.426Z,101941.00
2023-02-18T20:50:17.095Z,101946.75
2023-02-18T20:52:43.661Z,101945.53
2023-02-18T20:55:10.168Z,101951.75
2023-02-18T20:57:36.766Z,101947.09
2023-02-18T21:00:04.504Z,101947.91
2023-02-18T21:02:31.173Z,101950.63
2023-02-18T21:04:57.621Z,101941.66
2023-02-18T21:07:24.147Z,101935.13
2023-02-18T21:09:50.648Z,101924.75
2023-02-18T21:12:17.211Z,101925.19
2023-02-18T21:14:43.784Z,101910.50
2023-02-18T21:17:10.271Z,101910.50
2023-02-18T21:19:36.892Z,101915.13
2023-02-18T21:22:03.489Z,101916.28
2023-02-18T21:24:32.915Z,101913.56
2023-02-18T21:26:59.472Z,101901.91
2023-02-18T21:29:26.032Z,101904.25
2023-02-18T21:31:52.658Z,101898.81
2023-02-18T21:34:19.255Z,101908.13
2023-02-18T21:36:45.953Z,101903.03
2023-02-18T21:39:12.496Z,101895.69
2023-02-18T21:41:41.090Z,101886.72
2023-02-18T21:44:07.979Z,101884.81
2023-02-18T21:46:35.379Z,101876.22
2023-02-18T21:49:02.565Z,101872.25
2023-02-18T21:51:48.882Z,101874.97
2023-02-18T21:54:16.664Z,101889.38
2023-02-18T21:56:43.580Z,101889.38
2023-02-18T21:59:10.296Z,101876.91
2023-02-18T22:01:37.766Z,101881.56
2023-02-18T22:04:04.529Z,101888.94
2023-02-18T22:06:31.194Z,101891.19
2023-02-18T22:09:00.978Z,101893.13
2023-02-18T22:11:28.760Z,101896.97
2023-02-18T22:13:55.473Z,101906.28
2023-02-18T22:16:22.231Z,101888.81
2023-02-18T22:18:50.068Z,101896.63
2023-02-18T22:21:16.715Z,101890.41
2023-02-18T22:23:43.593Z,101885.75
2023-02-18T22:26:10.608Z,101882.72
2023-02-18T22:28:37.329Z,101889.25
2023-02-18T22:31:08.532Z,101881.00
2023-02-18T22:33:35.686Z,101886.03
2023-02-18T22:36:07.488Z,101878.28
2023-02-18T22:38:37.016Z,101882.59
2023-02-18T22:41:07.958Z,101877.50
2023-02-18T22:43:35.639Z,101884.97
2023-02-18T22:46:03.774Z,101871.41
2023-02-18T22:48:32.587Z,101870.59
2023-02-18T22:51:06.606Z,101877.97
2023-02-18T22:53:34.330Z,101874.78
2023-02-18T22:56:03.620Z,101881.00
2023-02-18T22:58:30.369Z,101888.81
2023-02-18T23:00:57.444Z,101887.25
2023-02-18T23:03:23.967Z,101886.44
2023-02-18T23:05:50.524Z,101886.44
2023-02-18T23:08:17.061Z,101889.16
2023-02-18T23:10:43.593Z,101886.44
2023-02-18T23:13:11.018Z,101876.38
2023-02-18T23:15:37.614Z,101882.59
2023-02-18T23:18:04.392Z,101871.75
2023-02-18T23:20:49.580Z,101873.69
2023-02-18T23:23:16.133Z,101878.28
2023-02-18T23:25:42.658Z,101881.81
2023-02-18T23:28:09.138Z,101878.28
2023-02-18T23:30:35.694Z,101877.88
2023-02-18T23:33:02.230Z,101881.38
2023-02-18T23:35:28.724Z,101870.50
2023-02-18T23:38:05.197Z,101872.44
2023-02-18T23:40:32.178Z,101874.72
2023-02-18T23:42:58.663Z,101873.56
2023-02-18T23:45:25.216Z,101876.28
2023-02-18T23:47:51.795Z,101882.06
2023-02-18T23:50:18.871Z,101876.22
2023-02-18T23:52:47.622Z,101887.06
2023-02-18T23:55:14.144Z,101875.78
2023-02-18T23:57:40.631Z,101873.84
